Time;durP1;ratioP1;P1;durP2;ratioP2;P2;SDS_P1;SDS_P2;PMS_P1;PMS_P2;Temp;Humidity;BMP_temperature;BMP_pressure;BME280_temperature;BME280_humidity;BME280_pressure;Samples;Min_cycle;Max_cycle;Signal;HPM_P1;HPM_P2
2022/08/07 00:00:24;;;;;;;2.38;2.28;;;22.70;62.40;;;;;;6212400;22;43381;-61
2022/08/07 00:02:51;;;;;;;2.60;2.50;;;22.70;62.50;;;;;;6212789;22;43838;-62
2022/08/07 00:05:20;;;;;;;2.72;2.60;;;22.70;62.40;;;;;;6211660;22;43841;-63
2022/08/07 00:07:50;;;;;;;2.70;2.50;;;22.70;62.40;;;;;;6213082;22;43271;-62
2022/08/07 00:10:29;;;;;;;2.65;2.45;;;22.70;62.40;;;;;;6212407;22;43340;-62
2022/08/07 00:13:00;;;;;;;2.47;2.38;;;22.60;62.30;;;;;;6212201;22;44867;-63
2022/08/07 00:15:49;;;;;;;2.63;2.53;;;22.60;62.30;;;;;;6190538;22;43229;-62
2022/08/07 00:18:20;;;;;;;2.70;2.60;;;22.60;62.40;;;;;;6211873;22;43244;-62
2022/08/07 00:21:01;;;;;;;2.80;2.60;;;22.60;62.30;;;;;;6212659;22;43312;-62
2022/08/07 00:23:51;;;;;;;2.60;2.50;;;22.60;62.40;;;;;;6212365;22;45073;-62
2022/08/07 00:26:18;;;;;;;2.78;2.58;;;22.60;62.40;;;;;;6211378;22;43773;-62
2022/08/07 00:29:06;;;;;;;2.92;2.72;;;22.60;62.50;;;;;;6169855;22;43333;-62
2022/08/07 00:31:33;;;;;;;2.88;2.70;;;22.60;62.40;;;;;;6185087;22;43416;-62
2022/08/07 00:34:07;;;;;;;2.60;2.50;;;22.60;62.40;;;;;;6211826;22;44018;-62
2022/08/07 00:36:37;;;;;;;2.67;2.58;;;22.60;62.40;;;;;;6185514;22;43830;-62
2022/08/07 00:39:13;;;;;;;2.83;2.63;;;22.50;62.40;;;;;;6212635;22;43189;-61
2022/08/07 00:41:59;;;;;;;2.70;2.60;;;22.60;62.40;;;;;;6212471;22;43237;-62
2022/08/07 00:44:35;;;;;;;3.22;2.90;;;22.50;62.40;;;;;;6185476;22;44722;-62
2022/08/07 00:47:08;;;;;;;3.15;2.95;;;22.50;62.50;;;;;;6184658;22;43956;-62
2022/08/07 00:49:55;;;;;;;2.60;2.40;;;22.50;62.40;;;;;;6186184;22;43329;-61
2022/08/07 00:52:43;;;;;;;2.70;2.60;;;22.50;62.40;;;;;;6185274;22;43232;-62
2022/08/07 00:55:14;;;;;;;2.92;2.78;;;22.50;62.40;;;;;;6211728;22;43985;-62
2022/08/07 00:57:52;;;;;;;2.50;2.40;;;22.40;62.40;;;;;;6185824;22;44146;-62
2022/08/07 01:00:22;;;;;;;;;;;22.50;62.40;;;;;;6185050;22;43220;-61
2022/08/07 01:02:50;;;;;;;2.88;2.72;;;22.40;62.40;;;;;;6212357;22;43219;-62
2022/08/07 01:05:19;;;;;;;2.90;2.70;;;22.40;62.50;;;;;;6211802;22;44007;-62
2022/08/07 01:07:50;;;;;;;2.78;2.58;;;22.40;62.40;;;;;;6184786;22;43249;-62
2022/08/07 01:10:19;;;;;;;2.90;2.70;;;22.40;62.50;;;;;;6211825;22;43242;-62
2022/08/07 01:12:48;;;;;;;2.88;2.67;;;22.40;62.50;;;;;;6185012;22;43241;-62
2022/08/07 01:15:24;;;;;;;3.10;2.85;;;22.40;62.40;;;;;;6211435;22;43988;-62
2022/08/07 01:18:13;;;;;;;3.08;2.88;;;22.40;62.50;;;;;;6185144;22;43601;-62
2022/08/07 01:20:55;;;;;;;2.80;2.60;;;22.40;62.50;;;;;;6185144;22;43274;-61
2022/08/07 01:23:29;;;;;;;2.72;2.63;;;22.40;62.50;;;;;;6184812;22;43225;-62
2022/08/07 01:26:09;;;;;;;3.00;2.80;;;22.40;62.40;;;;;;6184936;22;44163;-62
2022/08/07 01:28:43;;;;;;;2.92;2.63;;;22.40;62.40;;;;;;6184453;22;43937;-61
2022/08/07 01:31:19;;;;;;;3.13;2.83;;;22.30;62.40;;;;;;6185215;22;43265;-61
2022/08/07 01:33:49;;;;;;;2.63;2.50;;;22.30;62.50;;;;;;6185007;22;43351;-62
2022/08/07 01:36:27;;;;;;;2.60;2.50;;;22.30;62.40;;;;;;6183998;22;43714;-62
2022/08/07 01:39:04;;;;;;;2.90;2.70;;;22.30;62.40;;;;;;6159805;22;46217;-61
2022/08/07 01:41:38;;;;;;;2.80;2.60;;;22.30;62.40;;;;;;6184846;22;43325;-61
2022/08/07 01:44:23;;;;;;;2.65;2.55;;;22.30;62.40;;;;;;6184423;22;43348;-62
2022/08/07 01:46:52;;;;;;;3.08;2.88;;;22.30;62.40;;;;;;6211859;22;43712;-61
2022/08/07 01:49:20;;;;;;;2.97;2.78;;;22.30;62.50;;;;;;6184743;22;43631;-62
2022/08/07 01:51:49;;;;;;;2.83;2.70;;;22.20;62.50;;;;;;6184115;22;43226;-62
2022/08/07 01:54:38;;;;;;;3.13;2.90;;;22.20;63.10;;;;;;6185214;22;43341;-61
2022/08/07 01:57:22;;;;;;;2.67;2.58;;;22.20;62.40;;;;;;6184236;22;44364;-62
2022/08/07 01:59:59;;;;;;;3.35;3.15;;;22.20;62.50;;;;;;6186017;22;43686;-62
2022/08/07 02:02:55;;;;;;;2.92;2.72;;;22.20;62.50;;;;;;6186023;22;43282;-62
2022/08/07 02:05:49;;;;;;;3.00;2.80;;;22.20;62.40;;;;;;6212736;22;43431;-61
2022/08/07 02:08:36;;;;;;;3.20;3.00;;;22.10;62.40;;;;;;6186571;22;44732;-62
2022/08/07 02:11:07;;;;;;;3.00;2.80;;;22.10;62.40;;;;;;6185452;22;43702;-62
2022/08/07 02:13:40;;;;;;;2.83;2.63;;;22.10;62.50;;;;;;6186675;22;43732;-62
2022/08/07 02:16:26;;;;;;;2.92;2.72;;;22.20;62.50;;;;;;6186585;22;43446;-61
2022/08/07 02:19:02;;;;;;;3.05;2.85;;;22.10;62.50;;;;;;6213153;22;44912;-62
2022/08/07 02:21:53;;;;;;;3.00;2.80;;;22.10;62.50;;;;;;6186486;22;43892;-62
2022/08/07 02:24:24;;;;;;;3.22;3.03;;;22.10;62.50;;;;;;6186424;22;43346;-62
2022/08/07 02:26:59;;;;;;;2.97;2.78;;;22.10;62.50;;;;;;6186451;22;43331;-62
2022/08/07 02:29:32;;;;;;;2.67;2.58;;;22.10;62.40;;;;;;6186205;22;44728;-61
2022/08/07 02:32:04;;;;;;;3.10;2.90;;;22.10;62.50;;;;;;6185473;22;43640;-62
2022/08/07 02:34:38;;;;;;;3.10;2.90;;;22.10;62.50;;;;;;6186907;22;43369;-61
2022/08/07 02:37:22;;;;;;;3.10;2.90;;;22.10;62.50;;;;;;6186647;22;43279;-61
2022/08/07 02:39:53;;;;;;;2.60;2.50;;;22.10;62.40;;;;;;6185572;22;44699;-61
2022/08/07 02:42:45;;;;;;;3.10;2.90;;;22.10;62.50;;;;;;6186395;22;43651;-62
2022/08/07 02:45:17;;;;;;;2.30;2.20;;;22.00;62.40;;;;;;6186079;22;43260;-62
2022/08/07 02:48:05;;;;;;;3.00;2.80;;;22.00;62.50;;;;;;6186172;22;43217;-62
2022/08/07 02:50:47;;;;;;;2.88;2.60;;;22.00;62.40;;;;;;6186121;22;44745;-62
2022/08/07 02:53:44;;;;;;;2.88;2.67;;;22.00;62.50;;;;;;6185420;22;43338;-61
2022/08/07 02:56:17;;;;;;;2.97;2.78;;;22.00;62.40;;;;;;6210219;22;43277;-62
2022/08/07 02:58:53;;;;;;;3.00;2.80;;;22.00;62.50;;;;;;6186291;22;43315;-62
2022/08/07 03:01:26;;;;;;;3.17;2.97;;;22.00;62.50;;;;;;6185744;22;43900;-63
2022/08/07 03:04:12;;;;;;;3.20;3.00;;;22.00;62.40;;;;;;6185934;22;44624;-62
2022/08/07 03:06:43;;;;;;;3.25;3.05;;;21.90;62.50;;;;;;6186000;22;43293;-61
2022/08/07 03:09:14;;;;;;;3.00;2.80;;;21.90;62.50;;;;;;6185954;22;43337;-61
2022/08/07 03:12:08;;;;;;;3.20;3.00;;;21.90;62.50;;;;;;6185466;22;43955;-62
2022/08/07 03:14:50;;;;;;;3.20;3.00;;;21.90;62.40;;;;;;6185272;22;43229;-62
2022/08/07 03:17:20;;;;;;;3.17;2.97;;;21.90;62.50;;;;;;6186508;22;43292;-62
2022/08/07 03:19:50;;;;;;;3.03;2.72;;;21.90;62.40;;;;;;6185897;22;43408;-62
2022/08/07 03:22:24;;;;;;;3.17;2.97;;;21.90;62.50;;;;;;6185196;22;44916;-62
2022/08/07 03:24:58;;;;;;;3.22;3.03;;;21.90;62.40;;;;;;6186569;22;43272;-62
2022/08/07 03:27:32;;;;;;;3.20;3.00;;;21.90;62.40;;;;;;6185567;22;43285;-61
2022/08/07 03:30:22;;;;;;;3.05;2.78;;;21.80;62.40;;;;;;6185454;22;43313;-62
2022/08/07 03:32:53;;;;;;;3.40;3.15;;;21.90;62.50;;;;;;6186179;22;44721;-61
2022/08/07 03:35:31;;;;;;;3.35;3.08;;;21.80;62.40;;;;;;6185245;22;43320;-62
2022/08/07 03:38:18;;;;;;;3.20;3.00;;;21.80;62.50;;;;;;6186298;22;43360;-61
2022/08/07 03:40:50;;;;;;;3.20;3.00;;;21.80;62.50;;;;;;6212669;22;43256;-61
2022/08/07 03:43:26;;;;;;;3.42;3.13;;;21.80;62.50;;;;;;6184932;22;43684;-61
2022/08/07 03:46:02;;;;;;;3.00;2.80;;;21.80;62.50;;;;;;6186138;22;43320;-61
2022/08/07 03:48:32;;;;;;;3.10;2.90;;;21.80;62.50;;;;;;6185727;22;43822;-61
2022/08/07 03:51:12;;;;;;;3.15;2.95;;;21.80;62.60;;;;;;6185339;22;43324;-61
2022/08/07 03:53:41;;;;;;;3.33;3.10;;;21.70;62.60;;;;;;6185947;22;44718;-61
2022/08/07 03:56:30;;;;;;;3.00;2.80;;;21.80;62.60;;;;;;6185268;22;43695;-61
2022/08/07 03:59:03;;;;;;;3.42;3.13;;;21.70;63.10;;;;;;6186319;22;43245;-61
2022/08/07 04:01:44;;;;;;;3.42;3.15;;;21.70;62.50;;;;;;6185546;22;43308;-61
2022/08/07 04:04:16;;;;;;;3.08;2.88;;;21.70;62.50;;;;;;6184568;22;44654;-61
2022/08/07 04:06:50;;;;;;;3.10;2.90;;;21.70;62.50;;;;;;6185945;22;44018;-61
2022/08/07 04:09:20;;;;;;;3.10;2.90;;;21.70;62.50;;;;;;6184146;22;43305;-61
2022/08/07 04:11:55;;;;;;;3.20;3.00;;;21.70;62.50;;;;;;6185083;22;43425;-61
2022/08/07 04:14:45;;;;;;;3.25;3.05;;;21.70;62.50;;;;;;6185670;22;44158;-61
2022/08/07 04:17:17;;;;;;;2.97;2.78;;;21.70;62.50;;;;;;6185279;22;43730;-61
2022/08/07 04:19:51;;;;;;;3.30;3.10;;;21.70;62.50;;;;;;6185860;22;43280;-61
2022/08/07 04:22:25;;;;;;;2.95;2.75;;;21.70;62.60;;;;;;6185534;22;43318;-61
2022/08/07 04:24:58;;;;;;;3.17;2.95;;;21.70;62.60;;;;;;6185115;22;44166;-61
2022/08/07 04:27:30;;;;;;;3.08;2.88;;;21.60;62.50;;;;;;6185674;22;43918;-61
2022/08/07 04:30:05;;;;;;;3.08;2.88;;;21.60;62.50;;;;;;6185510;22;43298;-61
2022/08/07 04:32:58;;;;;;;3.00;2.80;;;21.60;62.50;;;;;;6185721;22;43295;-62
2022/08/07 04:35:29;;;;;;;3.05;2.85;;;21.60;62.50;;;;;;6185808;22;44030;-61
2022/08/07 04:38:10;;;;;;;3.10;2.90;;;21.60;62.50;;;;;;6185613;22;43612;-61
2022/08/07 04:40:44;;;;;;;3.25;3.03;;;21.60;62.50;;;;;;6183167;22;43280;-61
2022/08/07 04:43:34;;;;;;;3.00;2.80;;;21.60;62.50;;;;;;6185765;22;43417;-62
2022/08/07 04:46:43;;;;;;;3.30;3.00;;;21.60;62.50;;;;;;6184515;22;43815;-61
2022/08/07 04:49:44;;;;;;;2.97;2.78;;;21.60;62.60;;;;;;6185259;22;43896;-61
2022/08/07 04:52:49;;;;;;;3.22;3.03;;;21.60;62.50;;;;;;6185262;22;43225;-61
2022/08/07 04:55:33;;;;;;;3.03;2.83;;;21.60;62.50;;;;;;6185610;22;43453;-61
2022/08/07 04:58:42;;;;;;;2.90;2.70;;;21.60;62.50;;;;;;6185163;22;44585;-61
2022/08/07 05:01:43;;;;;;;3.10;2.90;;;21.50;62.40;;;;;;6184122;22;44837;-61
2022/08/07 05:04:21;;;;;;;3.40;3.10;;;21.60;62.50;;;;;;6184976;22;43284;-63
2022/08/07 05:06:53;;;;;;;2.83;2.63;;;21.50;62.50;;;;;;6212229;22;43370;-62
2022/08/07 05:09:54;;;;;;;3.15;2.95;;;21.50;62.50;;;;;;6184877;22;44077;-62
2022/08/07 05:12:28;;;;;;;3.28;3.08;;;21.60;62.50;;;;;;6184141;22;43316;-62
2022/08/07 05:15:16;;;;;;;3.00;2.80;;;21.50;62.40;;;;;;6185517;22;43233;-62
2022/08/07 05:18:05;;;;;;;2.60;2.50;;;21.50;62.40;;;;;;6185849;22;43294;-62
2022/08/07 05:20:42;;;;;;;2.70;2.55;;;21.50;62.50;;;;;;6184179;22;43760;-62
2022/08/07 05:23:34;;;;;;;2.88;2.67;;;21.50;62.60;;;;;;6184747;22;43208;-62
2022/08/07 05:26:04;;;;;;;2.90;2.70;;;21.50;62.60;;;;;;6185750;22;43245;-62
2022/08/07 05:28:50;;;;;;;2.80;2.60;;;21.50;62.60;;;;;;6166346;23;43318;-62
2022/08/07 05:31:25;;;;;;;2.90;2.70;;;21.50;62.50;;;;;;6175124;23;44973;-62
2022/08/07 05:34:08;;;;;;;2.47;2.38;;;21.50;62.60;;;;;;6174763;23;44603;-62
2022/08/07 05:36:41;;;;;;;2.80;2.67;;;21.40;62.50;;;;;;6176331;23;43289;-62
2022/08/07 05:39:21;;;;;;;2.85;2.65;;;21.50;62.60;;;;;;6176626;23;43281;-62
2022/08/07 05:42:10;;;;;;;2.80;2.60;;;21.50;62.60;;;;;;6175310;23;44027;-63
2022/08/07 05:44:42;;;;;;;3.22;2.72;;;21.50;62.60;;;;;;6176286;23;43977;-63
2022/08/07 05:47:31;;;;;;;2.50;2.40;;;21.50;62.70;;;;;;6176230;23;43295;-63
2022/08/07 05:50:20;;;;;;;2.90;2.70;;;21.40;62.70;;;;;;6175631;23;43280;-63
2022/08/07 05:52:48;;;;;;;2.53;2.42;;;21.40;62.70;;;;;;6151277;23;43986;-63
2022/08/07 05:55:16;;;;;;;2.47;2.38;;;21.40;62.80;;;;;;6151231;23;43716;-63
2022/08/07 05:57:46;;;;;;;3.13;2.83;;;21.40;62.80;;;;;;6151245;23;43269;-63
2022/08/07 06:00:16;;;;;;;;;;;21.40;62.80;;;;;;6151737;23;43277;-63
2022/08/07 06:03:00;;;;;;;2.90;2.70;;;21.50;62.80;;;;;;6150567;23;44156;-63
2022/08/07 06:05:30;;;;;;;2.65;2.50;;;21.40;62.80;;;;;;6151498;23;43628;-63
2022/08/07 06:08:05;;;;;;;2.80;2.60;;;21.40;62.90;;;;;;6151582;23;43293;-63
2022/08/07 06:10:53;;;;;;;2.60;2.40;;;21.40;62.80;;;;;;6151179;23;43251;-63
2022/08/07 06:13:23;;;;;;;2.60;2.40;;;21.40;62.80;;;;;;6176046;23;44564;-63
2022/08/07 06:16:13;;;;;;;2.47;2.28;;;21.40;62.80;;;;;;6150737;23;43563;-62
2022/08/07 06:18:44;;;;;;;2.80;2.60;;;21.40;62.90;;;;;;6152396;23;43706;-63
2022/08/07 06:21:23;;;;;;;2.55;2.42;;;21.40;62.90;;;;;;6151638;23;43222;-63
2022/08/07 06:24:12;;;;;;;2.45;2.35;;;21.40;62.90;;;;;;6175070;23;43859;-63
2022/08/07 06:27:00;;;;;;;2.42;2.22;;;21.40;62.90;;;;;;6151177;23;43540;-63
2022/08/07 06:29:32;;;;;;;2.53;2.42;;;21.40;63.00;;;;;;6150994;23;43277;-63
2022/08/07 06:32:00;;;;;;;2.70;2.60;;;21.40;63.00;;;;;;6152544;23;43389;-63
2022/08/07 06:34:31;;;;;;;2.97;2.78;;;21.40;63.00;;;;;;6151095;23;44032;-63
2022/08/07 06:37:00;;;;;;;2.83;2.63;;;21.40;63.00;;;;;;6151471;23;43720;-63
2022/08/07 06:39:34;;;;;;;2.60;2.50;;;21.40;63.00;;;;;;6150771;23;43231;-63
2022/08/07 06:42:29;;;;;;;2.53;2.40;;;21.40;63.00;;;;;;6150813;23;43330;-63
2022/08/07 06:45:16;;;;;;;2.45;2.35;;;21.40;63.00;;;;;;6175101;23;44658;-63
2022/08/07 06:47:52;;;;;;;2.35;2.25;;;21.40;63.00;;;;;;6176284;23;43350;-62
2022/08/07 06:50:29;;;;;;;2.60;2.40;;;21.40;63.00;;;;;;6151005;23;43325;-63
2022/08/07 06:53:00;;;;;;;2.67;2.50;;;21.40;63.00;;;;;;6150753;23;43339;-63
2022/08/07 06:55:34;;;;;;;2.50;2.40;;;21.40;63.00;;;;;;6175843;23;44884;-63
2022/08/07 06:58:24;;;;;;;2.80;2.60;;;21.40;63.00;;;;;;6151170;23;43956;-62
2022/08/07 07:01:07;;;;;;;2.60;2.50;;;21.40;62.90;;;;;;6150776;23;43266;-62
2022/08/07 07:03:38;;;;;;;2.53;2.42;;;21.40;63.60;;;;;;6150110;23;43312;-62
2022/08/07 07:06:22;;;;;;;2.80;2.60;;;21.40;62.90;;;;;;6151834;23;43859;-64
2022/08/07 07:08:54;;;;;;;2.60;2.50;;;21.40;62.90;;;;;;6153122;23;43883;-63
2022/08/07 07:11:24;;;;;;;2.80;2.60;;;21.40;62.90;;;;;;6151075;23;43363;-62
2022/08/07 07:14:17;;;;;;;2.70;2.50;;;21.40;62.90;;;;;;6152148;23;43275;-62
2022/08/07 07:16:51;;;;;;;2.60;2.40;;;21.40;62.80;;;;;;6152900;23;43843;-62
2022/08/07 07:19:29;;;;;;;2.50;2.30;;;21.40;62.80;;;;;;6152404;23;43997;-62
2022/08/07 07:22:18;;;;;;;2.70;2.50;;;21.40;62.80;;;;;;6151791;23;43277;-62
2022/08/07 07:25:06;;;;;;;2.70;2.60;;;21.40;62.80;;;;;;6152926;23;43300;-63
2022/08/07 07:28:01;;;;;;;2.42;2.30;;;21.40;62.80;;;;;;6157372;22;44644;-63
2022/08/07 07:30:59;;;;;;;2.55;2.45;;;21.40;62.80;;;;;;6212573;22;43661;-64
2022/08/07 07:33:29;;;;;;;2.60;2.40;;;21.40;62.80;;;;;;6212201;22;43322;-63
2022/08/07 07:35:59;;;;;;;2.47;2.30;;;21.40;62.90;;;;;;6212841;22;43390;-63
2022/08/07 07:38:41;;;;;;;2.85;2.70;;;21.40;62.90;;;;;;6212859;22;43850;-63
2022/08/07 07:41:15;;;;;;;3.40;3.08;;;21.40;62.90;;;;;;6212309;22;43216;-66
2022/08/07 07:43:45;;;;;;;2.63;2.53;;;21.40;62.80;;;;;;6213448;22;43552;-64
2022/08/07 07:46:36;;;;;;;2.75;2.60;;;21.40;62.60;;;;;;6208941;22;43265;-64
2022/08/07 07:49:25;;;;;;;3.20;2.95;;;21.50;62.40;;;;;;6211335;22;43792;-63
2022/08/07 07:52:14;;;;;;;3.00;2.80;;;21.50;62.40;;;;;;6212225;22;43274;-64
2022/08/07 07:54:44;;;;;;;2.83;2.70;;;21.50;62.30;;;;;;6211780;22;43267;-64
2022/08/07 07:57:21;;;;;;;2.58;2.38;;;21.50;62.20;;;;;;6211207;22;43367;-64
2022/08/07 08:00:11;;;;;;;2.60;2.50;;;21.60;62.30;;;;;;6211661;22;43964;-64
2022/08/07 08:02:49;;;;;;;2.70;2.58;;;21.60;62.30;;;;;;6211000;22;43645;-64
2022/08/07 08:05:35;;;;;;;2.83;2.63;;;21.60;62.30;;;;;;6188938;22;43377;-64
2022/08/07 08:08:27;;;;;;;2.90;2.70;;;21.60;62.30;;;;;;6212106;22;43316;-64
2022/08/07 08:11:06;;;;;;;;;;;21.60;62.20;;;;;;6211892;22;45054;-64
2022/08/07 08:13:47;;;;;;;2.80;2.60;;;21.60;62.30;;;;;;6211476;22;43456;-64
2022/08/07 08:16:25;;;;;;;2.65;2.42;;;21.60;62.40;;;;;;6211679;22;43285;-64
2022/08/07 08:18:58;;;;;;;2.88;2.67;;;21.50;62.40;;;;;;6212326;22;43394;-64
2022/08/07 08:27:52;;;;;;;3.00;2.80;;;21.50;62.40;;;;;;6211834;22;43238;-64
2022/08/07 08:30:29;;;;;;;2.63;2.42;;;21.50;62.50;;;;;;6211488;22;43282;-64
2022/08/07 08:33:02;;;;;;;2.85;2.70;;;21.50;62.40;;;;;;6211369;22;44627;-64
2022/08/07 08:35:33;;;;;;;2.70;2.50;;;21.60;62.50;;;;;;6211553;22;43977;-64
2022/08/07 08:38:15;;;;;;;2.70;2.60;;;21.60;62.50;;;;;;6211598;22;43340;-64
2022/08/07 08:41:24;;;;;;;2.90;2.70;;;21.60;62.50;;;;;;6212005;22;43477;-64
2022/08/07 08:44:07;;;;;;;2.63;2.53;;;21.60;62.50;;;;;;6167700;22;44943;-65
2022/08/07 08:46:49;;;;;;;2.45;2.35;;;21.60;62.50;;;;;;6210850;22;43900;-65
2022/08/07 08:49:28;;;;;;;2.53;2.42;;;21.60;62.40;;;;;;6211847;22;43306;-64
2022/08/07 08:52:14;;;;;;;2.55;2.35;;;21.60;62.40;;;;;;6211212;22;43304;-64
2022/08/07 08:55:20;;;;;;;2.55;2.35;;;21.60;62.50;;;;;;6184804;22;44102;-64
2022/08/07 08:58:31;;;;;;;2.80;2.60;;;21.60;62.50;;;;;;6212010;22;43639;-64
2022/08/07 09:01:21;;;;;;;2.35;2.25;;;21.60;62.50;;;;;;6188601;22;43358;-64
2022/08/07 09:04:25;;;;;;;2.90;2.70;;;21.60;62.50;;;;;;6212169;22;43426;-64
2022/08/07 09:07:07;;;;;;;2.90;2.70;;;21.70;62.50;;;;;;6211815;22;43941;-65
2022/08/07 09:10:10;;;;;;;2.70;2.50;;;21.70;62.60;;;;;;6212849;22;43649;-64
2022/08/07 09:13:14;;;;;;;2.65;2.53;;;21.70;62.60;;;;;;6205416;22;43272;-64
2022/08/07 09:16:09;;;;;;;2.78;2.58;;;21.70;62.50;;;;;;6185570;22;43461;-64
2022/08/07 09:19:07;;;;;;;3.70;3.00;;;21.70;62.50;;;;;;6213176;22;44756;-65
2022/08/07 09:22:44;;;;;;;2.80;2.60;;;21.70;62.60;;;;;;6212798;22;43667;-64
2022/08/07 09:26:00;;;;;;;2.90;2.70;;;21.70;62.50;;;;;;6211618;22;43357;-65
2022/08/07 09:28:34;;;;;;;3.00;2.80;;;21.70;62.60;;;;;;6212729;22;43390;-64
2022/08/07 09:32:09;;;;;;;3.10;2.90;;;21.70;62.50;;;;;;6209555;22;43871;-65
2022/08/07 09:34:59;;;;;;;2.90;2.70;;;21.70;62.40;;;;;;6106863;22;43773;-65
2022/08/07 09:37:44;;;;;;;2.75;2.55;;;21.80;62.40;;;;;;6212901;22;43292;-65
2022/08/07 09:40:34;;;;;;;2.65;2.53;;;21.80;62.90;;;;;;6212287;22;43370;-65
2022/08/07 09:43:26;;;;;;;2.67;2.58;;;21.80;62.30;;;;;;6212169;22;44725;-65
2022/08/07 09:46:29;;;;;;;2.85;2.63;;;21.90;62.30;;;;;;6212504;22;43173;-64
2022/08/07 09:49:35;;;;;;;3.10;2.80;;;21.90;62.10;;;;;;6212114;22;43340;-63
2022/08/07 09:52:35;;;;;;;2.72;2.53;;;21.90;62.10;;;;;;6212931;22;43219;-63
2022/08/07 09:55:25;;;;;;;3.10;2.90;;;21.90;62.10;;;;;;6211853;22;44905;-64
2022/08/07 09:58:19;;;;;;;3.35;2.63;;;21.90;62.10;;;;;;6213078;22;43133;-67
2022/08/07 10:01:24;;;;;;;2.90;2.70;;;21.90;62.20;;;;;;6185492;22;43249;-63
2022/08/07 10:04:55;;;;;;;2.50;2.38;;;21.90;62.20;;;;;;6212103;22;43318;-64
2022/08/07 10:07:56;;;;;;;3.08;2.78;;;22.00;62.20;;;;;;6096204;22;44900;-63
2022/08/07 10:10:47;;;;;;;3.17;2.90;;;22.00;62.20;;;;;;6211436;22;43799;-64
2022/08/07 10:14:08;;;;;;;2.95;2.75;;;22.00;62.20;;;;;;6212438;22;43241;-63
2022/08/07 10:16:46;;;;;;;3.40;3.10;;;22.10;62.30;;;;;;6212103;22;43261;-63
2022/08/07 10:19:28;;;;;;;2.75;2.65;;;22.10;62.30;;;;;;6212424;22;44804;-63
2022/08/07 10:22:30;;;;;;;2.50;2.30;;;22.10;62.20;;;;;;6212166;22;43943;-64
2022/08/07 10:25:39;;;;;;;2.70;2.60;;;22.10;62.20;;;;;;6212683;22;43254;-64
2022/08/07 10:28:09;;;;;;;2.92;2.72;;;22.10;62.00;;;;;;6211846;22;43403;-63
2022/08/07 10:30:56;;;;;;;3.03;2.72;;;22.10;62.10;;;;;;6211739;22;44722;-63
2022/08/07 10:33:36;;;;;;;2.78;2.58;;;22.10;61.90;;;;;;6212500;22;43625;-63
2022/08/07 10:37:09;;;;;;;2.85;2.67;;;22.20;62.00;;;;;;6212151;22;43238;-63
2022/08/07 10:40:03;;;;;;;2.67;2.47;;;22.20;62.00;;;;;;6169203;22;43365;-63
2022/08/07 10:42:38;;;;;;;2.60;2.50;;;22.20;62.00;;;;;;6211684;22;43766;-63
2022/08/07 10:45:30;;;;;;;3.10;2.90;;;22.20;62.00;;;;;;6211791;22;43265;-63
2022/08/07 10:48:29;;;;;;;2.70;2.50;;;22.30;62.20;;;;;;6212290;22;43225;-63
2022/08/07 10:51:06;;;;;;;2.80;2.60;;;22.20;62.00;;;;;;6212253;22;43221;-63
2022/08/07 10:53:54;;;;;;;2.50;2.40;;;22.20;62.10;;;;;;6212434;22;43977;-63
2022/08/07 10:56:45;;;;;;;2.90;2.70;;;22.30;62.10;;;;;;6211792;22;43630;-63
2022/08/07 10:59:25;;;;;;;2.80;2.65;;;22.30;62.10;;;;;;6211889;22;43265;-63
2022/08/07 11:02:15;;;;;;;2.50;2.40;;;22.30;62.00;;;;;;6212794;22;43367;-63
2022/08/07 11:05:27;;;;;;;2.80;2.60;;;22.30;62.00;;;;;;6212053;22;43860;-63
2022/08/07 11:08:40;;;;;;;2.65;2.45;;;22.30;61.90;;;;;;6211848;22;43618;-63
2022/08/07 11:11:56;;;;;;;2.78;2.58;;;22.30;62.00;;;;;;6212363;22;43276;-63
2022/08/07 11:14:43;;;;;;;3.10;2.63;;;22.30;62.00;;;;;;6189610;22;43237;-63
2022/08/07 11:17:33;;;;;;;2.92;2.70;;;22.30;61.80;;;;;;6212792;22;44753;-63
2022/08/07 11:20:22;;;;;;;2.80;2.60;;;22.30;61.50;;;;;;6212120;22;43909;-63
2022/08/07 11:23:02;;;;;;;3.55;3.20;;;22.30;61.40;;;;;;6213128;22;43319;-64
2022/08/07 11:25:41;;;;;;;3.17;2.50;;;22.40;61.50;;;;;;6212747;22;43266;-63
2022/08/07 11:28:34;;;;;;;3.20;3.00;;;22.40;61.60;;;;;;6211893;22;44065;-63
2022/08/07 11:31:29;;;;;;;3.60;2.72;;;22.40;61.70;;;;;;6212793;22;44010;-64
2022/08/07 11:34:28;;;;;;;2.80;2.60;;;22.40;61.80;;;;;;6212177;22;43269;-63
2022/08/07 11:37:11;;;;;;;2.75;2.58;;;22.40;61.90;;;;;;6213263;22;43822;-62
2022/08/07 11:40:13;;;;;;;2.70;2.50;;;22.40;61.80;;;;;;6212402;22;44915;-62
2022/08/07 11:43:13;;;;;;;2.67;2.45;;;22.40;61.80;;;;;;6198911;22;43387;-64
2022/08/07 11:45:53;;;;;;;2.90;2.70;;;22.40;61.90;;;;;;6187184;22;43337;-62
2022/08/07 11:48:29;;;;;;;2.92;2.65;;;22.40;61.90;;;;;;6212285;22;43384;-62
2022/08/07 11:51:29;;;;;;;2.70;2.60;;;22.40;62.00;;;;;;6212962;22;43805;-63
2022/08/07 11:54:22;;;;;;;2.42;2.33;;;22.40;62.10;;;;;;6208727;22;43929;-63
2022/08/07 11:57:14;;;;;;;3.13;2.55;;;22.40;62.10;;;;;;6212281;22;43260;-63
2022/08/07 12:00:05;;;;;;;3.33;2.57;;;22.50;62.00;;;;;;6212313;22;43293;-63
2022/08/07 12:03:10;;;;;;;2.80;2.60;;;22.50;61.90;;;;;;6211321;22;43742;-63
2022/08/07 12:06:28;;;;;;;2.22;2.13;;;22.50;61.90;;;;;;6212339;22;43853;-63
2022/08/07 12:09:09;;;;;;;2.80;2.60;;;22.60;61.90;;;;;;6211038;22;43213;-63
2022/08/07 12:12:11;;;;;;;2.55;2.40;;;22.60;61.90;;;;;;6212061;22;43278;-64
2022/08/07 12:15:04;;;;;;;3.00;2.80;;;22.60;61.80;;;;;;6211155;22;44939;-65
2022/08/07 12:17:55;;;;;;;2.50;2.30;;;22.60;62.10;;;;;;6184612;22;43963;-64
2022/08/07 12:20:43;;;;;;;4.82;2.63;;;22.60;62.00;;;;;;6211439;22;43252;-63
2022/08/07 12:23:42;;;;;;;2.72;2.50;;;22.60;61.90;;;;;;6211212;22;43212;-64
2022/08/07 12:26:47;;;;;;;2.65;2.45;;;22.60;61.90;;;;;;6212049;22;43780;-65
2022/08/07 12:29:22;;;;;;;2.40;2.30;;;22.60;62.00;;;;;;6210979;22;43344;-63
2022/08/07 12:32:24;;;;;;;2.78;2.60;;;22.60;62.00;;;;;;6211721;22;43196;-64
2022/08/07 12:34:52;;;;;;;2.80;2.40;;;22.60;62.00;;;;;;6211225;22;43321;-63
2022/08/07 12:37:24;;;;;;;2.92;2.40;;;22.60;62.00;;;;;;6211286;22;44942;-64
2022/08/07 12:40:16;;;;;;;2.88;2.67;;;22.60;62.00;;;;;;6211793;22;43584;-64
2022/08/07 12:43:06;;;;;;;2.50;2.30;;;22.70;62.00;;;;;;6211529;22;43249;-64
2022/08/07 12:46:01;;;;;;;2.45;2.35;;;22.70;62.10;;;;;;6211726;22;43213;-64
2022/08/07 12:48:46;;;;;;;2.03;1.92;;;22.70;62.10;;;;;;6211283;22;45070;-64
2022/08/07 12:51:24;;;;;;;2.50;2.30;;;22.70;62.10;;;;;;6211346;22;43742;-63
2022/08/07 12:54:46;;;;;;;2.28;2.17;;;22.80;62.10;;;;;;6209818;22;43284;-63
2022/08/07 12:57:26;;;;;;;2.35;2.15;;;22.80;62.20;;;;;;6211463;22;43272;-63
2022/08/07 13:00:14;;;;;;;2.20;2.10;;;22.90;62.20;;;;;;6210467;22;43970;-63
2022/08/07 13:03:18;;;;;;;2.70;2.50;;;22.90;62.10;;;;;;6210651;22;43735;-64
2022/08/07 13:06:45;;;;;;;2.30;2.20;;;22.90;62.00;;;;;;6210838;22;43317;-64
2022/08/07 13:09:44;;;;;;;;;;;22.90;61.90;;;;;;6185181;22;43343;-64
2022/08/07 13:12:55;;;;;;;2.40;2.20;;;22.90;61.70;;;;;;6210837;22;44656;-65
2022/08/07 13:15:46;;;;;;;2.00;1.90;;;23.00;61.70;;;;;;6209697;22;43949;-64
2022/08/07 13:18:47;;;;;;;2.28;2.15;;;23.00;62.00;;;;;;6211141;22;43235;-64
2022/08/07 13:21:30;;;;;;;2.35;2.25;;;23.00;61.90;;;;;;6211177;22;43274;-64
2022/08/07 13:24:24;;;;;;;2.28;2.17;;;23.00;61.70;;;;;;6210512;22;44892;-64
2022/08/07 13:27:24;;;;;;;2.50;2.30;;;23.00;61.80;;;;;;6210116;22;43855;-63
2022/08/07 13:30:13;;;;;;;2.03;1.92;;;23.10;61.80;;;;;;6210793;22;43315;-63
2022/08/07 13:33:14;;;;;;;2.33;2.20;;;23.10;61.70;;;;;;6210936;22;43910;-64
2022/08/07 13:36:13;;;;;;;2.30;2.20;;;23.10;61.60;;;;;;6211569;22;43762;-65
2022/08/07 13:39:07;;;;;;;2.13;2.03;;;23.10;61.50;;;;;;6210813;22;43186;-64
2022/08/07 13:41:56;;;;;;;2.17;2.07;;;23.10;61.60;;;;;;6211262;22;43253;-63
2022/08/07 13:44:30;;;;;;;2.25;2.05;;;23.10;61.60;;;;;;6210656;22;43446;-64
2022/08/07 13:47:05;;;;;;;2.42;2.22;;;23.10;61.60;;;;;;6210713;22;44699;-64
2022/08/07 13:49:46;;;;;;;2.10;2.00;;;23.10;61.60;;;;;;6210946;22;43608;-63
2022/08/07 13:52:40;;;;;;;2.13;2.03;;;23.10;61.60;;;;;;6211236;22;43261;-64
2022/08/07 13:55:18;;;;;;;2.40;2.30;;;23.10;61.70;;;;;;6183397;22;43322;-64
2022/08/07 14:01:11;;;;;;;3.22;1.80;;;23.20;61.80;;;;;;6212845;22;43288;-64
2022/08/07 14:03:40;;;;;;;2.05;1.90;;;23.20;61.80;;;;;;6211957;22;43267;-64
2022/08/07 14:06:33;;;;;;;2.03;1.90;;;23.20;61.90;;;;;;6212279;22;43371;-64
2022/08/07 14:09:06;;;;;;;1.90;1.80;;;23.20;61.80;;;;;;6211982;22;44812;-63
2022/08/07 14:11:45;;;;;;;2.53;1.80;;;23.30;62.00;;;;;;6186980;22;43240;-63
2022/08/07 14:14:46;;;;;;;2.10;2.00;;;23.30;61.80;;;;;;6212117;22;43273;-64
2022/08/07 14:17:15;;;;;;;1.80;1.70;;;23.30;61.80;;;;;;6212126;22;43632;-64
2022/08/07 14:20:15;;;;;;;2.00;1.80;;;23.20;61.80;;;;;;6212611;22;43709;-61
2022/08/07 14:23:13;;;;;;;2.45;1.90;;;23.30;61.90;;;;;;6212155;22;43646;-63
2022/08/07 14:26:06;;;;;;;2.08;1.98;;;23.30;62.00;;;;;;6212716;22;43308;-63